Startpagina
METAR-TAF:

METAR-TAF

Vliegvelden :

Córdoba, Argentinië

breedte: 31-19S, lengte: 064-13W, hoogte: 484 m

Actueel weer

Dit bericht is 2 uur en het 2 minuten geleden gemaakt, om 09:00 UTC
Wind 8 kt uit het zuidwesten
Temperatuur 8°C
Vochtigheid 53%
Druk 1025 hPa
Zicht 10 km of meer
geen wolken onder 1500 m en geen cumulonimbus

METAR: SACO 230900Z 23008KT CAVOK 08/M01 Q1025 NOSIG

Tijdstip: 08:02 (11:02 UTC)

Verwachting

Dit bericht is 6 uur en het 2 minuten geleden gemaakt, om 05:00 UTC
Verwachting geldig van 23 om 06 UTC tot 24 om 06 UTC
Wind 5 kt uit het zuidwesten
Zicht 10 km of meer
geen wolken onder 1500 m en geen cumulonimbus
Wijzigt naar
van 23 om 13 UTC tot 23 om 15 UTC
Wind 10 kt uit het zuidzuidoosten
Wijzigt naar
van 23 om 23 UTC tot 24 om 01 UTC
Wind 5 kt uit het zuidwesten

TAF: SACO 230500Z 2306/2406 22005KT CAVOK TX15/2318Z TN01/2310Z BECMG 2313/2315 16010KT BECMG 2323/2401 23005KT

Waarnemingen en weersverwachtingen van meer dan 4000 vliegvelden (METAR en TAF).

De beschikbare stations zijn de gele en rode punten op de kaart.

Ga met uw muis naar het station om de naam te zien.

Klik dan om waarnemingen en weersverwachtingen te zien.

kaart wijzigen: klik op de groene knoppen met een zwart kruis om in te zoomen, op de groene knop met een streepje om uit te zoomen of op de groene pijlen voor aangrenzende kaarten.


METAR-TAF: